Time;durP1;ratioP1;P1;durP2;ratioP2;P2;SDS_P1;SDS_P2;PMS_P1;PMS_P2;Temp;Humidity;BMP_temperature;BMP_pressure;BME280_temperature;BME280_humidity;BME280_pressure;Samples;Min_cycle;Max_cycle;Signal;HPM_P1;HPM_P2
2021/12/21 00:02:18;;;;;;;2.88;1.90;;;-1.60;99.90;;;;;;5027455;28;20096;-93
2021/12/21 00:04:43;;;;;;;3.47;2.03;;;-1.60;99.90;;;;;;5034836;28;20036;-93
2021/12/21 00:07:09;;;;;;;2.22;1.80;;;-1.70;99.90;;;;;;5033447;28;20076;-93
2021/12/21 00:09:34;;;;;;;2.92;2.00;;;-1.70;99.90;;;;;;5027300;28;20029;-93
2021/12/21 00:12:01;;;;;;;3.30;2.10;;;-1.80;99.90;;;;;;5025399;28;20036;-94
2021/12/21 00:14:45;;;;;;;3.55;2.20;;;-1.80;99.90;;;;;;5026966;28;20044;-92
2021/12/21 00:19:50;;;;;;;2.13;1.90;;;-1.80;99.90;;;;;;5052665;28;20442;-94
2021/12/21 00:22:49;;;;;;;1.92;1.52;;;-1.90;99.90;;;;;;5041235;28;20148;-94
2021/12/21 00:25:05;;;;;;;2.70;1.83;;;-1.90;99.90;;;;;;5058844;28;20033;-95
2021/12/21 00:27:31;;;;;;;2.53;1.70;;;-2.00;99.90;;;;;;5041643;28;20021;-92
2021/12/21 00:29:56;;;;;;;2.20;1.50;;;-2.00;99.90;;;;;;5040000;28;20040;-93
2021/12/21 00:32:23;;;;;;;2.42;1.60;;;-2.00;99.90;;;;;;5033744;28;20018;-92
2021/12/21 00:34:48;;;;;;;2.03;1.65;;;-2.00;99.90;;;;;;5019803;28;20036;-95
2021/12/21 00:37:14;;;;;;;2.30;1.67;;;-2.10;99.90;;;;;;5019108;28;20468;-94
2021/12/21 00:39:40;;;;;;;2.25;1.52;;;-2.10;99.90;;;;;;5019288;28;20033;-95
2021/12/21 00:42:06;;;;;;;3.08;1.90;;;-2.10;99.90;;;;;;5018638;28;20033;-94
2021/12/21 00:44:32;;;;;;;3.55;1.95;;;-2.10;99.90;;;;;;5018484;28;20442;-93
2021/12/21 00:46:58;;;;;;;2.47;1.60;;;-2.10;99.90;;;;;;5018159;28;20045;-93
2021/12/21 00:49:24;;;;;;;1.92;1.52;;;-2.20;99.90;;;;;;5018578;28;20084;-94
2021/12/21 00:51:50;;;;;;;1.90;1.52;;;-2.20;99.90;;;;;;5018024;28;20033;-94
2021/12/21 00:54:18;;;;;;;2.08;1.60;;;-2.20;99.90;;;;;;5035626;28;20480;-93
2021/12/21 00:56:44;;;;;;;2.50;1.80;;;-2.20;99.90;;;;;;5017683;28;20096;-93
2021/12/21 00:59:10;;;;;;;3.70;1.50;;;-2.20;99.90;;;;;;5035718;28;20457;-94
2021/12/21 01:01:40;;;;;;;2.17;1.67;;;-2.20;99.90;;;;;;5036413;28;20041;-92
2021/12/21 01:04:10;;;;;;;2.47;1.52;;;-2.20;99.90;;;;;;5030778;28;20232;-92
2021/12/21 01:06:43;;;;;;;2.38;1.60;;;-2.20;99.90;;;;;;5032422;28;20056;-92
2021/12/21 01:09:32;;;;;;;2.53;1.63;;;-2.30;99.90;;;;;;5018797;28;20108;-92
2021/12/21 01:12:03;;;;;;;1.80;1.50;;;-2.30;99.90;;;;;;5035166;28;20038;-93
2021/12/21 01:17:23;;;;;;;1.77;1.60;;;-2.30;99.90;;;;;;5035572;28;20045;-92
2021/12/21 01:20:00;;;;;;;3.38;1.90;;;-2.40;99.90;;;;;;5018523;28;20338;-92
2021/12/21 01:23:01;;;;;;;2.47;1.73;;;-2.40;99.90;;;;;;5017728;28;20052;-93
2021/12/21 01:28:00;;;;;;;3.17;2.03;;;-2.40;99.90;;;;;;5035313;28;20468;-95
2021/12/21 01:35:36;;;;;;;3.13;1.92;;;-2.50;99.90;;;;;;5037401;28;20044;-94
2021/12/21 01:38:19;;;;;;;3.33;2.10;;;-2.50;99.90;;;;;;5017987;28;20080;-93
2021/12/21 01:40:53;;;;;;;2.95;2.05;;;-2.50;99.90;;;;;;5017740;28;20038;-94
2021/12/21 01:43:30;;;;;;;3.38;2.15;;;-2.50;99.90;;;;;;5017421;28;20053;-94
2021/12/21 01:51:25;;;;;;;7.80;2.88;;;-2.40;99.90;;;;;;5037085;28;20048;-94
2021/12/21 01:53:53;;;;;;;5.88;3.10;;;-2.40;99.90;;;;;;5021108;28;20037;-93
2021/12/21 01:56:19;;;;;;;5.20;2.75;;;-2.30;99.90;;;;;;5021943;28;20041;-95
2021/12/21 01:58:45;;;;;;;5.90;3.38;;;-2.30;99.90;;;;;;5021240;28;20034;-93
2021/12/21 02:01:15;;;;;;;6.05;3.47;;;-2.30;99.90;;;;;;5021542;28;20041;-94
2021/12/21 02:03:47;;;;;;;5.75;3.60;;;-2.30;99.90;;;;;;5053286;28;20077;-93
2021/12/21 02:06:15;;;;;;;6.88;3.20;;;-2.30;99.90;;;;;;5053468;28;20048;-93
2021/12/21 02:08:41;;;;;;;6.07;3.20;;;-2.20;99.90;;;;;;5007743;28;20186;-92
2021/12/21 02:11:06;;;;;;;5.03;3.13;;;-2.20;99.90;;;;;;5021797;28;20042;-93
2021/12/21 02:13:36;;;;;;;5.80;3.30;;;-2.30;99.90;;;;;;5022323;28;20030;-94
2021/12/21 02:16:04;;;;;;;5.90;3.33;;;-2.20;99.90;;;;;;5021522;28;20052;-93
2021/12/21 02:23:49;;;;;;;6.25;3.67;;;-2.30;99.90;;;;;;5030906;28;20048;-93
2021/12/21 02:28:59;;;;;;;5.63;3.35;;;-2.30;99.90;;;;;;5019316;28;20116;-92
2021/12/21 02:31:26;;;;;;;5.65;3.45;;;-2.40;99.90;;;;;;5018060;28;20384;-92
2021/12/21 02:33:54;;;;;;;6.18;3.45;;;-2.40;99.90;;;;;;5026745;28;20037;-90
2021/12/21 02:36:21;;;;;;;5.30;2.97;;;-2.40;99.90;;;;;;5026067;28;20037;-91
2021/12/21 02:38:46;;;;;;;7.53;3.65;;;-2.50;99.90;;;;;;5029075;28;20041;-92
2021/12/21 02:41:12;;;;;;;6.85;3.35;;;-2.50;99.90;;;;;;5024125;28;20030;-91
2021/12/21 02:43:38;;;;;;;7.00;3.42;;;-2.50;99.90;;;;;;5025360;28;20050;-92
2021/12/21 02:46:04;;;;;;;5.65;3.33;;;-2.60;99.90;;;;;;5001157;28;20072;-94
2021/12/21 02:48:30;;;;;;;4.80;2.95;;;-2.60;99.90;;;;;;5018701;28;20026;-93
2021/12/21 02:50:56;;;;;;;5.47;3.25;;;-2.60;99.90;;;;;;5018028;28;20041;-93
2021/12/21 02:53:21;;;;;;;5.38;2.97;;;-2.70;99.90;;;;;;5000513;28;20038;-93
2021/12/21 02:55:47;;;;;;;4.97;2.92;;;-2.70;99.90;;;;;;5000590;28;20168;-92
2021/12/21 02:58:13;;;;;;;5.13;3.15;;;-2.70;99.90;;;;;;5001270;28;20038;-92
2021/12/21 03:00:39;;;;;;;5.75;3.17;;;-2.70;99.90;;;;;;5018501;28;20030;-93
2021/12/21 03:03:12;;;;;;;5.00;3.13;;;-2.80;99.90;;;;;;5022817;28;20388;-91
2021/12/21 03:05:39;;;;;;;4.60;2.72;;;-2.80;99.90;;;;;;5008090;28;20057;-93
2021/12/21 03:08:17;;;;;;;4.47;2.63;;;-2.80;99.90;;;;;;5022631;28;20128;-91
2021/12/21 03:10:59;;;;;;;4.65;2.53;;;-2.80;99.90;;;;;;5018083;28;20033;-91
2021/12/21 03:16:09;;;;;;;4.57;2.90;;;-2.80;99.90;;;;;;5017804;28;20049;-93
2021/12/21 03:18:36;;;;;;;4.38;2.60;;;-2.80;99.90;;;;;;5002428;28;20030;-92
2021/12/21 03:21:01;;;;;;;4.38;2.75;;;-2.80;99.90;;;;;;5002408;28;20133;-93
2021/12/21 03:23:27;;;;;;;3.92;2.60;;;-2.80;99.90;;;;;;5016672;28;20121;-94
2021/12/21 03:25:53;;;;;;;3.50;2.53;;;-2.80;99.90;;;;;;4999887;28;20045;-93
2021/12/21 03:28:18;;;;;;;3.22;2.22;;;-2.80;99.90;;;;;;5028260;28;20030;-93
2021/12/21 03:30:44;;;;;;;5.03;2.00;;;-2.80;99.90;;;;;;5011586;28;20038;-92
2021/12/21 03:33:10;;;;;;;4.07;2.50;;;-2.80;99.90;;;;;;5000254;28;20034;-93
2021/12/21 03:35:35;;;;;;;3.28;2.20;;;-2.80;99.90;;;;;;4999739;28;20038;-92
2021/12/21 03:38:02;;;;;;;4.25;2.20;;;-2.90;99.90;;;;;;5016772;28;20034;-93
2021/12/21 03:40:32;;;;;;;3.50;2.15;;;-2.80;99.90;;;;;;5000171;28;20133;-92
2021/12/21 03:42:59;;;;;;;3.72;2.42;;;-2.80;99.90;;;;;;5016729;28;20049;-91
2021/12/21 03:45:25;;;;;;;2.85;2.03;;;-2.80;99.90;;;;;;5015826;28;20049;-92
2021/12/21 03:47:51;;;;;;;3.25;2.00;;;-2.90;99.90;;;;;;5017316;28;20457;-93
2021/12/21 03:50:20;;;;;;;2.42;1.73;;;-3.00;99.90;;;;;;5000149;28;20064;-93
2021/12/21 03:52:46;;;;;;;2.10;1.70;;;-3.10;99.90;;;;;;5016520;28;20042;-93
2021/12/21 03:55:13;;;;;;;3.08;1.75;;;-3.10;99.90;;;;;;5018896;28;20496;-90
2021/12/21 03:57:38;;;;;;;3.17;1.80;;;-3.10;99.90;;;;;;4999988;28;20045;-93
2021/12/21 04:00:27;;;;;;;2.42;1.80;;;-3.20;99.90;;;;;;5009310;28;20180;-92
2021/12/21 04:02:52;;;;;;;2.47;1.75;;;-3.30;96.10;;;;;;5028710;28;20037;-91
2021/12/21 04:05:18;;;;;;;3.00;1.80;;;-3.40;99.90;;;;;;5012408;28;21997;-94
2021/12/21 04:07:44;;;;;;;2.72;1.85;;;-3.50;99.90;;;;;;5013527;28;20033;-93
2021/12/21 04:10:10;;;;;;;2.55;1.92;;;-3.60;97.70;;;;;;5016918;28;20026;-92
2021/12/21 04:12:38;;;;;;;3.03;1.90;;;-3.70;98.00;;;;;;5016641;28;20515;-91
2021/12/21 04:15:06;;;;;;;2.28;1.80;;;-3.80;97.90;;;;;;4998263;28;20041;-91
2021/12/21 04:17:34;;;;;;;3.25;2.00;;;-3.90;99.00;;;;;;4999670;28;20452;-90
2021/12/21 04:19:59;;;;;;;2.65;1.80;;;-4.00;99.10;;;;;;4999285;28;20065;-90
2021/12/21 04:22:25;;;;;;;4.97;2.20;;;-4.00;99.90;;;;;;5017093;28;20037;-93
2021/12/21 04:24:51;;;;;;;2.97;1.63;;;-4.00;99.90;;;;;;4998970;28;20041;-90
2021/12/21 04:27:18;;;;;;;2.03;1.55;;;-4.00;99.90;;;;;;5015852;28;20107;-92
2021/12/21 04:29:44;;;;;;;2.38;1.67;;;-4.00;99.90;;;;;;5016418;28;20057;-91
2021/12/21 04:32:09;;;;;;;2.10;1.50;;;-4.00;99.60;;;;;;5016261;28;20030;-93
2021/12/21 04:34:36;;;;;;;2.17;1.50;;;-4.10;99.70;;;;;;4999127;28;20407;-93
2021/12/21 04:37:01;;;;;;;2.65;1.45;;;-4.10;98.60;;;;;;4998271;28;20033;-92
2021/12/21 04:41:54;;;;;;;2.55;1.45;;;-4.10;99.00;;;;;;5014962;28;20468;-90
2021/12/21 04:44:20;;;;;;;2.42;1.60;;;-4.10;98.50;;;;;;5014996;28;20052;-89
2021/12/21 04:46:48;;;;;;;2.05;1.50;;;-4.20;97.70;;;;;;4998162;28;20050;-90
2021/12/21 04:49:14;;;;;;;2.22;1.70;;;-4.20;98.10;;;;;;5016369;28;20387;-88
2021/12/21 04:51:40;;;;;;;4.28;1.80;;;-4.20;99.00;;;;;;4997489;28;20038;-90
2021/12/21 04:54:06;;;;;;;2.38;1.60;;;-4.20;98.20;;;;;;4998176;28;20042;-89
2021/12/21 04:56:32;;;;;;;2.45;1.70;;;-4.20;97.60;;;;;;4997995;28;20033;-89
2021/12/21 04:58:59;;;;;;;3.08;1.70;;;-4.20;98.30;;;;;;5014868;28;20037;-86
2021/12/21 05:01:25;;;;;;;2.45;1.77;;;-4.20;97.70;;;;;;5012127;28;20484;-86
2021/12/21 05:03:51;;;;;;;2.22;1.33;;;-4.20;97.10;;;;;;4996938;28;20041;-86
2021/12/21 05:06:19;;;;;;;1.95;1.27;;;-4.30;97.20;;;;;;5012991;28;20052;-85
2021/12/21 05:08:52;;;;;;;3.90;1.60;;;-4.20;97.30;;;;;;5014471;28;20033;-84
2021/12/21 05:11:19;;;;;;;3.33;1.48;;;-4.30;97.20;;;;;;5020025;28;20033;-86
2021/12/21 05:13:46;;;;;;;1.60;1.20;;;-4.30;96.00;;;;;;5034426;28;20384;-86
2021/12/21 05:16:11;;;;;;;1.92;1.35;;;-4.30;96.20;;;;;;5015755;28;20088;-86
2021/12/21 05:18:37;;;;;;;2.30;1.30;;;-4.30;96.40;;;;;;5016827;28;20037;-84
2021/12/21 05:21:04;;;;;;;2.85;1.75;;;-4.30;96.60;;;;;;5000102;28;20140;-84
2021/12/21 05:23:30;;;;;;;4.10;2.10;;;-4.30;96.50;;;;;;5016021;28;20080;-82
2021/12/21 05:25:56;;;;;;;2.85;1.90;;;-4.30;96.50;;;;;;5016348;28;20042;-88
2021/12/21 05:28:21;;;;;;;3.55;2.10;;;-4.30;96.60;;;;;;5016828;28;20030;-91
2021/12/21 05:30:47;;;;;;;4.43;2.25;;;-4.30;96.40;;;;;;5019413;28;20034;-87
2021/12/21 05:33:14;;;;;;;5.03;2.65;;;-4.40;96.60;;;;;;5028007;28;20038;-88
2021/12/21 05:35:40;;;;;;;4.32;2.40;;;-4.40;96.20;;;;;;4996333;28;20041;-84
2021/12/21 05:38:08;;;;;;;6.88;2.72;;;-4.40;96.50;;;;;;5012290;28;20103;-86
2021/12/21 05:40:38;;;;;;;4.90;2.40;;;-4.40;96.70;;;;;;5011520;28;20038;-87
2021/12/21 05:43:06;;;;;;;4.53;2.30;;;-4.40;96.20;;;;;;5011595;28;20492;-85
2021/12/21 05:45:33;;;;;;;3.85;2.10;;;-4.40;96.70;;;;;;5012942;28;20203;-85
2021/12/21 05:47:58;;;;;;;5.68;2.40;;;-4.40;96.80;;;;;;5010773;28;20041;-87
2021/12/21 05:50:24;;;;;;;2.55;1.80;;;-4.40;97.00;;;;;;5012935;28;20041;-87
2021/12/21 05:52:50;;;;;;;4.70;2.10;;;-4.40;97.30;;;;;;5029338;28;20035;-87
2021/12/21 05:55:17;;;;;;;5.72;2.80;;;-4.40;97.30;;;;;;5008028;28;20033;-85
2021/12/21 05:57:43;;;;;;;5.72;3.30;;;-4.40;97.20;;;;;;5013317;28;20077;-86
2021/12/21 06:00:14;;;;;;;4.70;2.83;;;-4.50;97.50;;;;;;5009271;28;20565;-86
2021/12/21 06:02:42;;;;;;;4.82;2.55;;;-4.50;97.40;;;;;;5017831;28;20057;-91
2021/12/21 06:05:08;;;;;;;4.18;2.53;;;-4.50;97.50;;;;;;4994429;28;20069;-92
2021/12/21 06:07:34;;;;;;;4.15;2.30;;;-4.50;97.70;;;;;;5022405;28;20453;-91
2021/12/21 06:10:10;;;;;;;4.38;2.45;;;-4.50;97.60;;;;;;5014503;28;20124;-91
2021/12/21 06:12:44;;;;;;;4.57;2.58;;;-4.50;97.80;;;;;;5013522;28;20480;-90
2021/12/21 06:15:20;;;;;;;3.83;1.90;;;-4.40;97.70;;;;;;5000817;28;20042;-90
2021/12/21 06:26:04;;;;;;;3.08;1.98;;;-4.40;98.20;;;;;;5014082;28;20081;-91
2021/12/21 06:28:31;;;;;;;3.95;2.10;;;-4.30;98.30;;;;;;4997016;28;20044;-89
2021/12/21 06:30:56;;;;;;;4.20;2.15;;;-4.30;98.50;;;;;;5012015;28;20107;-88
2021/12/21 06:33:22;;;;;;;63.28;31.45;;;-4.30;98.20;;;;;;5012863;28;20034;-89
2021/12/21 06:35:49;;;;;;;45.40;20.75;;;-4.20;98.00;;;;;;5011898;28;20041;-87
2021/12/21 06:38:15;;;;;;;19.33;9.25;;;-4.10;98.20;;;;;;5013563;28;20030;-87
2021/12/21 06:40:40;;;;;;;12.95;6.28;;;-4.00;97.40;;;;;;4999737;28;20041;-87
2021/12/21 06:43:12;;;;;;;8.70;4.20;;;-4.00;97.50;;;;;;5016983;28;20073;-87
2021/12/21 06:53:39;;;;;;;3.53;2.30;;;-3.90;97.40;;;;;;5016083;28;20038;-84
2021/12/21 06:56:07;;;;;;;4.40;2.10;;;-3.90;96.80;;;;;;5015088;28;20042;-86
2021/12/21 06:58:33;;;;;;;4.50;2.42;;;-3.90;97.40;;;;;;5015477;28;20038;-86
2021/12/21 07:01:00;;;;;;;3.00;2.03;;;-3.80;97.20;;;;;;5023920;28;20472;-85
2021/12/21 07:03:26;;;;;;;4.25;2.22;;;-3.70;96.90;;;;;;5009841;28;20055;-86
2021/12/21 07:05:52;;;;;;;3.97;2.28;;;-3.80;96.60;;;;;;5020702;28;20064;-86
2021/12/21 07:08:24;;;;;;;3.95;2.17;;;-3.70;96.90;;;;;;5017596;28;20373;-85
2021/12/21 07:10:55;;;;;;;52.33;22.30;;;-3.70;97.30;;;;;;5019777;28;20084;-83
2021/12/21 07:18:50;;;;;;;12.40;5.70;;;-3.50;96.80;;;;;;5038122;28;20130;-83
2021/12/21 07:21:17;;;;;;;8.50;4.15;;;-3.50;96.70;;;;;;5016555;28;20076;-84
2021/12/21 07:23:42;;;;;;;5.45;2.95;;;-3.50;96.70;;;;;;5033850;28;20116;-84
2021/12/21 07:26:09;;;;;;;6.00;3.10;;;-3.40;96.10;;;;;;5017331;28;20540;-84
2021/12/21 07:28:34;;;;;;;5.28;2.95;;;-3.40;96.30;;;;;;5017789;28;20034;-84
2021/12/21 07:31:00;;;;;;;4.10;2.60;;;-3.40;96.30;;;;;;5034365;28;20377;-84
2021/12/21 07:33:26;;;;;;;4.78;2.92;;;-3.50;95.80;;;;;;5017523;28;20034;-84
2021/12/21 07:35:52;;;;;;;4.22;2.50;;;-3.40;95.80;;;;;;5032754;28;20047;-85
2021/12/21 07:38:19;;;;;;;6.93;3.50;;;-3.40;96.10;;;;;;5015751;28;20064;-84
2021/12/21 07:40:45;;;;;;;7.13;3.28;;;-3.40;96.30;;;;;;5033531;28;20095;-84
2021/12/21 07:43:11;;;;;;;8.57;3.85;;;-3.40;96.20;;;;;;5015571;28;20045;-84
2021/12/21 07:45:37;;;;;;;9.13;4.20;;;-3.40;96.20;;;;;;5032330;28;20487;-84
2021/12/21 07:48:03;;;;;;;7.55;3.42;;;-3.40;96.20;;;;;;5015805;28;20033;-84
2021/12/21 07:50:29;;;;;;;7.68;3.30;;;-3.40;95.50;;;;;;5034908;28;20067;-82
2021/12/21 07:52:56;;;;;;;7.03;3.28;;;-3.50;94.40;;;;;;5017316;28;20033;-83
2021/12/21 07:55:22;;;;;;;6.57;3.20;;;-3.50;94.80;;;;;;5034570;28;20116;-83
2021/12/21 07:57:48;;;;;;;4.82;2.72;;;-3.50;94.70;;;;;;5033579;28;20041;-84
2021/12/21 08:00:15;;;;;;;5.00;2.63;;;-3.50;94.40;;;;;;5017469;28;20040;-84
2021/12/21 08:02:41;;;;;;;6.47;2.63;;;-3.50;94.80;;;;;;5016881;28;20033;-84
2021/12/21 08:05:08;;;;;;;3.95;2.40;;;-3.50;94.10;;;;;;5035083;28;20061;-84
2021/12/21 08:07:44;;;;;;;4.63;2.60;;;-3.50;94.20;;;;;;5034663;28;20092;-83
2021/12/21 08:10:27;;;;;;;5.03;2.72;;;-3.50;93.60;;;;;;5017918;28;20029;-84
2021/12/21 08:12:53;;;;;;;3.65;2.25;;;-3.50;92.40;;;;;;5017200;28;20039;-84
2021/12/21 08:15:20;;;;;;;4.60;2.42;;;-3.60;91.10;;;;;;5016634;28;20049;-84
2021/12/21 08:17:45;;;;;;;5.93;2.70;;;-3.50;91.70;;;;;;5034786;28;20102;-82
2021/12/21 08:20:11;;;;;;;4.60;2.70;;;-3.60;90.40;;;;;;5034310;28;20033;-83
2021/12/21 08:22:37;;;;;;;6.03;3.20;;;-3.60;88.10;;;;;;5016533;28;20463;-83
2021/12/21 08:25:03;;;;;;;5.53;2.70;;;-3.70;86.40;;;;;;5033804;28;20380;-84
2021/12/21 08:27:29;;;;;;;4.40;2.30;;;-3.70;84.50;;;;;;5016111;28;20055;-83
2021/12/21 08:29:54;;;;;;;4.00;2.30;;;-3.80;80.30;;;;;;5032908;28;20128;-85
2021/12/21 08:32:20;;;;;;;4.88;2.25;;;-3.90;78.90;;;;;;5033559;28;20038;-83
2021/12/21 08:34:46;;;;;;;3.78;2.00;;;-4.00;78.60;;;;;;5034618;28;20368;-83
2021/12/21 08:37:11;;;;;;;4.28;2.50;;;-4.00;80.00;;;;;;5016305;28;20040;-84
2021/12/21 08:39:40;;;;;;;4.43;2.30;;;-3.90;81.20;;;;;;5032795;28;20053;-85
2021/12/21 08:42:11;;;;;;;3.20;2.03;;;-3.80;81.10;;;;;;5033923;28;20061;-83
2021/12/21 08:44:37;;;;;;;3.97;2.50;;;-3.80;80.50;;;;;;5033806;28;20045;-83
2021/12/21 08:47:04;;;;;;;5.90;2.60;;;-3.90;79.10;;;;;;5033924;28;20045;-84
2021/12/21 08:49:30;;;;;;;4.70;2.38;;;-4.00;78.40;;;;;;5016608;28;20056;-83
2021/12/21 08:51:56;;;;;;;5.07;2.95;;;-4.00;80.00;;;;;;5016371;28;20029;-84
2021/12/21 08:54:23;;;;;;;5.40;2.90;;;-3.90;81.40;;;;;;5033433;28;20091;-84
2021/12/21 08:56:49;;;;;;;5.10;2.90;;;-3.70;83.00;;;;;;5033764;28;20052;-84
2021/12/21 08:59:16;;;;;;;5.18;3.00;;;-3.30;85.00;;;;;;5015756;28;20030;-85
2021/12/21 09:01:43;;;;;;;17.85;8.48;;;-2.90;84.60;;;;;;5033365;28;20061;-84
2021/12/21 09:04:09;;;;;;;10.18;5.15;;;-2.40;82.90;;;;;;5016606;28;20040;-84
2021/12/21 09:06:35;;;;;;;9.18;4.25;;;-2.10;81.30;;;;;;5016296;28;20065;-84
2021/12/21 09:09:01;;;;;;;6.80;3.85;;;-1.70;81.80;;;;;;5016016;28;20057;-84
2021/12/21 09:11:27;;;;;;;6.13;3.20;;;-1.50;81.20;;;;;;5032859;28;20037;-84
2021/12/21 09:13:52;;;;;;;5.32;2.78;;;-1.60;78.20;;;;;;5016170;28;20037;-83
2021/12/21 09:16:18;;;;;;;4.28;2.58;;;-1.80;77.20;;;;;;5033680;28;20036;-83
2021/12/21 09:18:45;;;;;;;4.72;2.40;;;-2.10;78.50;;;;;;5016666;28;20106;-83
2021/12/21 09:21:11;;;;;;;3.83;2.05;;;-2.30;79.10;;;;;;5016280;28;20041;-84
2021/12/21 09:23:37;;;;;;;5.10;2.60;;;-2.40;80.20;;;;;;5015980;28;20472;-83
2021/12/21 09:26:03;;;;;;;3.97;2.20;;;-2.60;81.20;;;;;;5034404;28;20053;-83
2021/12/21 09:28:28;;;;;;;3.63;2.00;;;-2.50;81.20;;;;;;5016187;28;20488;-83
2021/12/21 09:30:54;;;;;;;3.58;2.20;;;-2.60;81.30;;;;;;5033913;28;20033;-84
2021/12/21 09:33:19;;;;;;;4.93;2.60;;;-2.40;82.60;;;;;;5015921;28;20055;-83
2021/12/21 09:35:45;;;;;;;14.93;8.13;;;-2.10;83.20;;;;;;5016069;28;20074;-83
2021/12/21 09:38:11;;;;;;;7.50;4.45;;;-1.60;83.80;;;;;;5033625;28;20041;-84
2021/12/21 09:40:39;;;;;;;11.63;6.47;;;-1.10;81.40;;;;;;5015817;28;20045;-83
2021/12/21 09:43:08;;;;;;;12.13;6.75;;;-0.70;79.70;;;;;;5033308;28;20137;-83
2021/12/21 09:45:34;;;;;;;7.97;4.72;;;-0.60;76.00;;;;;;5033658;28;20096;-83
2021/12/21 09:48:00;;;;;;;7.28;3.95;;;-0.60;76.00;;;;;;5033932;28;20490;-83
2021/12/21 09:50:26;;;;;;;8.32;3.40;;;-0.80;75.40;;;;;;5033532;28;20105;-81
2021/12/21 09:52:55;;;;;;;5.85;3.40;;;-1.00;75.20;;;;;;5015855;28;20034;-84
2021/12/21 09:55:21;;;;;;;5.90;2.78;;;-1.20;76.30;;;;;;5031968;28;20476;-85
2021/12/21 09:57:49;;;;;;;5.72;3.05;;;-1.40;75.30;;;;;;5015830;28;20037;-83
2021/12/21 10:00:19;;;;;;;17.63;9.73;;;-1.60;76.40;;;;;;5016256;28;20033;-83
2021/12/21 10:02:45;;;;;;;7.43;4.50;;;-1.90;76.10;;;;;;5016933;28;20038;-84
2021/12/21 10:05:14;;;;;;;8.00;3.75;;;-2.20;76.50;;;;;;5018032;28;20539;-83
2021/12/21 10:07:40;;;;;;;6.88;3.22;;;-2.50;77.60;;;;;;5033487;28;20103;-83
2021/12/21 10:10:08;;;;;;;6.40;2.90;;;-2.60;79.00;;;;;;5016429;28;20362;-83
2021/12/21 10:12:38;;;;;;;5.75;3.08;;;-2.70;80.30;;;;;;5034164;28;20045;-84
2021/12/21 10:15:06;;;;;;;7.13;3.58;;;-2.80;80.40;;;;;;5037053;28;20022;-83
2021/12/21 10:17:33;;;;;;;7.50;3.85;;;-2.90;81.30;;;;;;5019075;28;20060;-82
2021/12/21 10:20:00;;;;;;;6.25;3.03;;;-3.00;81.20;;;;;;5037595;28;20110;-82
2021/12/21 10:22:26;;;;;;;7.82;3.65;;;-3.00;81.90;;;;;;5037356;28;20033;-83
2021/12/21 10:24:53;;;;;;;6.97;3.30;;;-3.00;81.90;;;;;;5036995;28;20106;-83
2021/12/21 10:27:20;;;;;;;6.88;3.40;;;-3.10;80.00;;;;;;5019879;28;20496;-83
2021/12/21 10:29:49;;;;;;;9.18;3.40;;;-3.10;78.00;;;;;;5037204;28;20053;-83
2021/12/21 10:32:17;;;;;;;5.72;2.47;;;-3.20;76.20;;;;;;5036885;28;20036;-84
2021/12/21 10:35:01;;;;;;;5.03;2.42;;;-3.30;73.80;;;;;;5037314;28;20468;-85
2021/12/21 10:37:33;;;;;;;4.15;2.33;;;-3.40;71.70;;;;;;5037192;28;20383;-83
2021/12/21 10:40:12;;;;;;;4.05;2.20;;;-3.50;70.00;;;;;;5036665;28;20029;-83
2021/12/21 10:42:54;;;;;;;5.57;2.28;;;-3.70;69.90;;;;;;5019280;28;20460;-83
2021/12/21 10:45:26;;;;;;;4.53;2.40;;;-3.70;70.20;;;;;;5019032;28;20040;-83
2021/12/21 10:47:52;;;;;;;3.25;1.90;;;-3.70;72.70;;;;;;5019234;28;20468;-83
2021/12/21 10:50:19;;;;;;;3.75;1.95;;;-3.70;71.10;;;;;;5019195;28;20034;-83
2021/12/21 10:52:53;;;;;;;5.03;2.22;;;-3.80;68.90;;;;;;5036696;28;20102;-84
2021/12/21 10:55:31;;;;;;;3.72;2.50;;;-3.90;68.90;;;;;;5018629;28;20128;-83
2021/12/21 10:58:12;;;;;;;4.65;2.10;;;-4.00;67.20;;;;;;5018849;28;20033;-84
2021/12/21 11:00:44;;;;;;;3.58;2.03;;;-4.00;68.30;;;;;;5018761;28;20387;-83
2021/12/21 11:03:11;;;;;;;2.20;1.60;;;-4.10;67.30;;;;;;5018985;28;20448;-83
2021/12/21 11:05:38;;;;;;;3.08;1.88;;;-4.20;65.90;;;;;;5018325;28;20042;-84
2021/12/21 11:08:14;;;;;;;3.00;1.90;;;-4.30;65.60;;;;;;5018576;28;20056;-83
2021/12/21 11:10:41;;;;;;;7.07;2.30;;;-4.30;66.80;;;;;;5036409;28;20053;-83
2021/12/21 11:13:09;;;;;;;4.03;2.00;;;-4.40;66.30;;;;;;5019459;28;20463;-84
2021/12/21 11:15:57;;;;;;;2.65;1.90;;;-4.40;66.50;;;;;;5019194;28;20427;-84
2021/12/21 11:18:25;;;;;;;2.90;1.80;;;-4.40;66.20;;;;;;5019022;28;20534;-84
2021/12/21 11:20:54;;;;;;;4.15;2.10;;;-4.40;66.50;;;;;;5018333;28;20040;-84
2021/12/21 11:23:22;;;;;;;3.05;1.88;;;-4.40;66.40;;;;;;5018013;28;20044;-84
2021/12/21 11:25:53;;;;;;;4.05;2.05;;;-4.20;66.20;;;;;;5017522;28;20049;-83
2021/12/21 11:28:26;;;;;;;3.28;1.80;;;-4.10;66.20;;;;;;5018560;28;20431;-84
2021/12/21 11:30:57;;;;;;;2.75;1.52;;;-4.00;65.80;;;;;;5036520;28;20099;-84
2021/12/21 11:33:25;;;;;;;2.50;1.75;;;-3.60;67.70;;;;;;5035462;28;20140;-84
2021/12/21 11:38:36;;;;;;;4.25;2.05;;;-1.70;60.90;;;;;;5035762;28;20049;-85
2021/12/21 11:41:04;;;;;;;3.28;1.80;;;-0.80;58.40;;;;;;5018054;28;20034;-84
2021/12/21 11:44:02;;;;;;;2.92;1.98;;;0.00;60.60;;;;;;5035718;28;20057;-84
2021/12/21 11:46:56;;;;;;;3.13;1.77;;;0.80;54.30;;;;;;5035329;28;20467;-84
2021/12/21 11:49:40;;;;;;;4.47;2.05;;;1.40;51.80;;;;;;5015068;28;20499;-84
2021/12/21 11:52:15;;;;;;;2.83;1.63;;;1.60;53.60;;;;;;5035661;28;20052;-84
2021/12/21 11:54:50;;;;;;;4.20;2.13;;;1.70;54.00;;;;;;5035765;28;20117;-84
2021/12/21 11:57:18;;;;;;;2.85;1.65;;;2.00;55.50;;;;;;5018275;28;20037;-84
2021/12/21 11:59:48;;;;;;;3.08;2.05;;;2.10;54.30;;;;;;5036712;28;20424;-84
2021/12/21 12:02:14;;;;;;;2.95;2.13;;;2.20;53.40;;;;;;5018656;28;20041;-84
2021/12/21 12:04:40;;;;;;;4.57;2.20;;;2.40;53.90;;;;;;5017848;28;20076;-83
2021/12/21 12:07:18;;;;;;;5.05;2.50;;;2.50;53.00;;;;;;5034886;28;20425;-83
2021/12/21 12:09:44;;;;;;;3.65;2.00;;;2.50;52.00;;;;;;5017552;28;20036;-83
2021/12/21 12:12:17;;;;;;;3.55;2.13;;;2.40;53.30;;;;;;5035338;28;20483;-83
2021/12/21 12:14:46;;;;;;;3.47;2.20;;;1.90;51.30;;;;;;5017345;28;20041;-82
2021/12/21 12:17:16;;;;;;;4.00;2.30;;;1.40;52.30;;;;;;5034963;28;20037;-83
2021/12/21 12:19:50;;;;;;;3.13;2.03;;;0.90;52.30;;;;;;5033549;28;20468;-83
2021/12/21 12:22:15;;;;;;;3.40;1.95;;;0.30;52.90;;;;;;5017090;28;20038;-84
2021/12/21 12:24:56;;;;;;;3.53;2.15;;;-0.10;53.00;;;;;;5034662;28;20044;-83
2021/12/21 12:27:25;;;;;;;5.68;3.00;;;-0.70;53.40;;;;;;5017548;28;20091;-83
2021/12/21 12:29:58;;;;;;;5.93;3.08;;;-1.30;53.40;;;;;;5017203;28;20033;-83
2021/12/21 12:32:33;;;;;;;6.57;3.13;;;-2.00;54.40;;;;;;5034770;28;20063;-83
2021/12/21 12:35:19;;;;;;;5.80;2.95;;;-2.60;55.70;;;;;;5033897;28;20049;-82
2021/12/21 12:38:00;;;;;;;6.20;2.83;;;-3.10;57.00;;;;;;5033463;28;20041;-85
2021/12/21 12:40:35;;;;;;;5.70;2.70;;;-3.50;57.20;;;;;;5017662;28;20044;-83
2021/12/21 12:43:07;;;;;;;5.13;2.65;;;-3.90;58.70;;;;;;5016420;28;20416;-83
2021/12/21 12:45:41;;;;;;;6.38;3.33;;;-4.20;59.50;;;;;;5034375;28;20040;-82
2021/12/21 12:48:22;;;;;;;7.50;3.05;;;-4.40;59.80;;;;;;5035113;28;20037;-84
2021/12/21 12:50:50;;;;;;;8.07;2.95;;;-4.80;60.00;;;;;;5034185;28;20025;-82
2021/12/21 12:53:16;;;;;;;6.00;3.10;;;-5.00;60.60;;;;;;5034320;28;20042;-83
2021/12/21 12:55:59;;;;;;;6.22;2.78;;;-5.30;61.70;;;;;;5016835;28;20033;-84
2021/12/21 12:58:28;;;;;;;7.15;3.28;;;-5.40;62.20;;;;;;5033237;28;20468;-83
2021/12/21 13:00:58;;;;;;;8.88;3.97;;;-5.50;62.60;;;;;;5016699;28;20033;-82
2021/12/21 13:03:40;;;;;;;8.85;3.42;;;-5.70;62.90;;;;;;5016854;28;20392;-85
2021/12/21 13:06:12;;;;;;;5.88;3.00;;;-5.70;63.10;;;;;;5016463;28;20037;-83
2021/12/21 13:08:40;;;;;;;7.03;3.35;;;-5.70;63.50;;;;;;5034497;28;20045;-83
2021/12/21 13:11:06;;;;;;;6.65;3.22;;;-5.80;63.60;;;;;;5016111;28;20064;-84
2021/12/21 13:13:41;;;;;;;7.13;3.08;;;-5.80;64.00;;;;;;5034069;28;20038;-83
2021/12/21 13:16:08;;;;;;;6.07;3.10;;;-5.90;63.90;;;;;;5016315;28;20044;-85
2021/12/21 13:18:56;;;;;;;6.03;3.00;;;-6.00;64.20;;;;;;5016334;28;20080;-84
2021/12/21 13:21:32;;;;;;;7.43;3.13;;;-6.10;64.30;;;;;;5016619;28;20030;-85
2021/12/21 13:24:11;;;;;;;9.80;3.30;;;-6.20;64.60;;;;;;5018200;28;20037;-84
2021/12/21 13:26:53;;;;;;;11.15;4.80;;;-6.20;64.90;;;;;;5033516;28;20045;-85
2021/12/21 13:29:24;;;;;;;11.57;4.13;;;-6.10;64.20;;;;;;5016527;28;20036;-83
2021/12/21 13:31:52;;;;;;;8.77;3.72;;;-6.20;64.00;;;;;;5015982;28;20038;-83
2021/12/21 13:34:22;;;;;;;6.07;3.63;;;-6.40;63.50;;;;;;5015911;28;20033;-83
2021/12/21 13:36:55;;;;;;;8.55;3.70;;;-6.50;64.00;;;;;;5017083;28;20056;-83
2021/12/21 13:39:29;;;;;;;6.82;3.25;;;-6.80;62.80;;;;;;5016349;28;20436;-84
2021/12/21 13:42:00;;;;;;;6.13;3.03;;;-6.80;64.00;;;;;;5015718;28;20037;-85
2021/12/21 13:44:27;;;;;;;9.63;4.28;;;-6.90;63.80;;;;;;5015575;28;20045;-84
2021/12/21 13:46:54;;;;;;;9.50;3.80;;;-7.20;65.00;;;;;;5015082;28;20048;-84
2021/12/21 13:49:26;;;;;;;8.68;4.15;;;-7.40;67.10;;;;;;5015664;28;20527;-84
2021/12/21 13:51:55;;;;;;;10.15;4.18;;;-7.60;68.90;;;;;;5034062;28;20072;-84
2021/12/21 13:54:24;;;;;;;8.15;3.15;;;-7.80;70.50;;;;;;5016520;28;20136;-84